sensor_id;sensor_type;location;lat;lon;timestamp;P1;durP1;ratioP1;P2;durP2;ratioP2
13319;SDS011;59599;47.608;12.190;2023-07-13T04:01:19;2.58;;;1.50;;
13319;SDS011;59599;47.608;12.190;2023-07-13T04:03:47;2.58;;;1.58;;
13319;SDS011;59599;47.608;12.190;2023-07-13T04:06:15;7.22;;;1.98;;
13319;SDS011;59599;47.608;12.190;2023-07-13T04:08:45;4.00;;;1.50;;
13319;SDS011;59599;47.608;12.190;2023-07-13T04:11:11;1.52;;;1.40;;
13319;SDS011;59599;47.608;12.190;2023-07-13T04:13:37;1.92;;;1.27;;
13319;SDS011;59599;47.608;12.190;2023-07-13T04:16:03;2.08;;;1.42;;
13319;SDS011;59599;47.608;12.190;2023-07-13T04:18:29;1.92;;;1.60;;
13319;SDS011;59599;47.608;12.190;2023-07-13T04:20:55;2.25;;;1.45;;
13319;SDS011;59599;47.608;12.190;2023-07-13T04:23:21;2.67;;;1.52;;
13319;SDS011;59599;47.608;12.190;2023-07-13T04:25:47;2.33;;;1.58;;
13319;SDS011;59599;47.608;12.190;2023-07-13T04:28:17;2.47;;;1.50;;
13319;SDS011;59599;47.608;12.190;2023-07-13T04:30:43;1.98;;;1.50;;
13319;SDS011;59599;47.608;12.190;2023-07-13T04:33:09;1.80;;;1.30;;
13319;SDS011;59599;47.608;12.190;2023-07-13T04:35:35;1.35;;;1.20;;
13319;SDS011;59599;47.608;12.190;2023-07-13T04:38:02;1.83;;;1.17;;
13319;SDS011;59599;47.608;12.190;2023-07-13T04:40:28;1.98;;;1.42;;
13319;SDS011;59599;47.608;12.190;2023-07-13T04:42:54;2.55;;;1.38;;
13319;SDS011;59599;47.608;12.190;2023-07-13T04:45:20;2.00;;;1.38;;
13319;SDS011;59599;47.608;12.190;2023-07-13T04:47:46;3.67;;;1.42;;
13319;SDS011;59599;47.608;12.190;2023-07-13T04:50:12;2.42;;;1.33;;
13319;SDS011;59599;47.608;12.190;2023-07-13T04:52:45;4.72;;;1.40;;
13319;SDS011;59599;47.608;12.190;2023-07-13T04:55:12;2.55;;;1.23;;
13319;SDS011;59599;47.608;12.190;2023-07-13T04:57:38;3.83;;;1.38;;
13319;SDS011;59599;47.608;12.190;2023-07-13T05:00:04;3.03;;;1.30;;
13319;SDS011;59599;47.608;12.190;2023-07-13T05:02:30;2.67;;;1.60;;
13319;SDS011;59599;47.608;12.190;2023-07-13T05:04:57;3.75;;;1.80;;
13319;SDS011;59599;47.608;12.190;2023-07-13T05:07:24;3.40;;;2.30;;
13319;SDS011;59599;47.608;12.190;2023-07-13T05:09:50;2.20;;;1.92;;
13319;SDS011;59599;47.608;12.190;2023-07-13T05:12:16;2.42;;;1.70;;
13319;SDS011;59599;47.608;12.190;2023-07-13T05:14:42;3.63;;;2.42;;
13319;SDS011;59599;47.608;12.190;2023-07-13T05:17:08;4.50;;;2.17;;
13319;SDS011;59599;47.608;12.190;2023-07-13T05:19:34;4.18;;;1.90;;
13319;SDS011;59599;47.608;12.190;2023-07-13T05:22:00;3.40;;;1.90;;
13319;SDS011;59599;47.608;12.190;2023-07-13T05:24:27;4.25;;;2.30;;
13319;SDS011;59599;47.608;12.190;2023-07-13T05:26:53;3.63;;;2.28;;
13319;SDS011;59599;47.608;12.190;2023-07-13T05:29:19;3.60;;;1.95;;
13319;SDS011;59599;47.608;12.190;2023-07-13T05:31:45;4.70;;;2.33;;
13319;SDS011;59599;47.608;12.190;2023-07-13T05:34:11;3.72;;;2.17;;
13319;SDS011;59599;47.608;12.190;2023-07-13T05:36:36;6.28;;;4.05;;
13319;SDS011;59599;47.608;12.190;2023-07-13T05:39:03;7.55;;;4.70;;
13319;SDS011;59599;47.608;12.190;2023-07-13T05:41:29;4.97;;;4.03;;
13319;SDS011;59599;47.608;12.190;2023-07-13T05:43:55;5.47;;;3.15;;
13319;SDS011;59599;47.608;12.190;2023-07-13T05:46:21;3.38;;;2.83;;
13319;SDS011;59599;47.608;12.190;2023-07-13T05:48:46;3.92;;;3.10;;
13319;SDS011;59599;47.608;12.190;2023-07-13T05:51:12;4.78;;;3.28;;
13319;SDS011;59599;47.608;12.190;2023-07-13T05:53:38;5.65;;;2.83;;
13319;SDS011;59599;47.608;12.190;2023-07-13T05:56:05;2.50;;;2.30;;
13319;SDS011;59599;47.608;12.190;2023-07-13T05:58:31;5.85;;;2.80;;
13319;SDS011;59599;47.608;12.190;2023-07-13T06:01:01;4.88;;;3.00;;
13319;SDS011;59599;47.608;12.190;2023-07-13T06:03:27;2.95;;;2.50;;
13319;SDS011;59599;47.608;12.190;2023-07-13T06:05:53;3.38;;;2.80;;
13319;SDS011;59599;47.608;12.190;2023-07-13T06:08:19;4.13;;;2.40;;
13319;SDS011;59599;47.608;12.190;2023-07-13T06:10:44;2.35;;;2.00;;
13319;SDS011;59599;47.608;12.190;2023-07-13T06:13:10;2.58;;;2.05;;
13319;SDS011;59599;47.608;12.190;2023-07-13T06:15:36;3.35;;;2.28;;
13319;SDS011;59599;47.608;12.190;2023-07-13T06:18:02;4.78;;;2.10;;
13319;SDS011;59599;47.608;12.190;2023-07-13T06:20:28;3.03;;;2.10;;
13319;SDS011;59599;47.608;12.190;2023-07-13T06:22:54;2.20;;;1.50;;
13319;SDS011;59599;47.608;12.190;2023-07-13T06:25:20;2.45;;;1.52;;
13319;SDS011;59599;47.608;12.190;2023-07-13T06:27:46;3.00;;;1.35;;
13319;SDS011;59599;47.608;12.190;2023-07-13T06:30:12;3.38;;;1.95;;
13319;SDS011;59599;47.608;12.190;2023-07-13T06:32:38;2.83;;;1.50;;
13319;SDS011;59599;47.608;12.190;2023-07-13T06:35:04;3.92;;;1.73;;
13319;SDS011;59599;47.608;12.190;2023-07-13T06:37:30;2.08;;;1.25;;
13319;SDS011;59599;47.608;12.190;2023-07-13T06:39:56;3.80;;;1.50;;
13319;SDS011;59599;47.608;12.190;2023-07-13T06:42:22;3.53;;;1.88;;
13319;SDS011;59599;47.608;12.190;2023-07-13T06:44:48;1.70;;;1.60;;
13319;SDS011;59599;47.608;12.190;2023-07-13T06:47:14;5.57;;;1.58;;
13319;SDS011;59599;47.608;12.190;2023-07-13T06:49:40;1.65;;;1.55;;
13319;SDS011;59599;47.608;12.190;2023-07-13T06:52:06;2.95;;;1.90;;
13319;SDS011;59599;47.608;12.190;2023-07-13T06:54:31;3.78;;;2.30;;
13319;SDS011;59599;47.608;12.190;2023-07-13T06:56:57;2.38;;;1.77;;
13319;SDS011;59599;47.608;12.190;2023-07-13T06:59:23;2.50;;;1.88;;
13319;SDS011;59599;47.608;12.190;2023-07-13T07:01:49;2.42;;;1.58;;
13319;SDS011;59599;47.608;12.190;2023-07-13T07:04:15;3.85;;;1.90;;
13319;SDS011;59599;47.608;12.190;2023-07-13T07:06:41;2.30;;;1.95;;
13319;SDS011;59599;47.608;12.190;2023-07-13T07:09:07;3.42;;;2.13;;
13319;SDS011;59599;47.608;12.190;2023-07-13T07:11:34;2.65;;;2.13;;
13319;SDS011;59599;47.608;12.190;2023-07-13T07:13:59;2.25;;;1.95;;
13319;SDS011;59599;47.608;12.190;2023-07-13T07:16:25;2.47;;;2.10;;
13319;SDS011;59599;47.608;12.190;2023-07-13T07:18:51;2.17;;;1.83;;
13319;SDS011;59599;47.608;12.190;2023-07-13T07:21:17;2.15;;;1.92;;
13319;SDS011;59599;47.608;12.190;2023-07-13T07:23:43;3.55;;;2.10;;
13319;SDS011;59599;47.608;12.190;2023-07-13T07:26:09;3.30;;;2.00;;
13319;SDS011;59599;47.608;12.190;2023-07-13T07:28:36;3.38;;;2.17;;
13319;SDS011;59599;47.608;12.190;2023-07-13T07:31:02;3.47;;;1.95;;
13319;SDS011;59599;47.608;12.190;2023-07-13T07:33:28;3.00;;;1.92;;
13319;SDS011;59599;47.608;12.190;2023-07-13T07:35:54;4.63;;;2.30;;
13319;SDS011;59599;47.608;12.190;2023-07-13T07:38:20;3.58;;;2.53;;
13319;SDS011;59599;47.608;12.190;2023-07-13T07:40:46;3.63;;;2.10;;
13319;SDS011;59599;47.608;12.190;2023-07-13T07:43:12;4.97;;;2.08;;
13319;SDS011;59599;47.608;12.190;2023-07-13T07:45:39;2.72;;;1.80;;
13319;SDS011;59599;47.608;12.190;2023-07-13T07:48:05;3.05;;;1.88;;
13319;SDS011;59599;47.608;12.190;2023-07-13T07:50:31;3.60;;;1.90;;
13319;SDS011;59599;47.608;12.190;2023-07-13T07:52:57;2.65;;;1.75;;
13319;SDS011;59599;47.608;12.190;2023-07-13T07:55:23;2.05;;;1.80;;
13319;SDS011;59599;47.608;12.190;2023-07-13T07:57:53;3.55;;;2.10;;
13319;SDS011;59599;47.608;12.190;2023-07-13T08:00:19;2.53;;;2.05;;
13319;SDS011;59599;47.608;12.190;2023-07-13T08:02:44;1.70;;;1.50;;
13319;SDS011;59599;47.608;12.190;2023-07-13T08:05:10;3.35;;;2.08;;
13319;SDS011;59599;47.608;12.190;2023-07-13T08:07:37;2.63;;;1.88;;
13319;SDS011;59599;47.608;12.190;2023-07-13T08:10:07;8.25;;;1.80;;
13319;SDS011;59599;47.608;12.190;2023-07-13T08:12:34;3.42;;;1.90;;
13319;SDS011;59599;47.608;12.190;2023-07-13T08:15:00;2.25;;;2.00;;
13319;SDS011;59599;47.608;12.190;2023-07-13T08:17:26;3.30;;;1.95;;
13319;SDS011;59599;47.608;12.190;2023-07-13T08:19:52;2.60;;;1.83;;
13319;SDS011;59599;47.608;12.190;2023-07-13T08:22:18;2.78;;;1.90;;
13319;SDS011;59599;47.608;12.190;2023-07-13T08:24:44;2.03;;;1.83;;
13319;SDS011;59599;47.608;12.190;2023-07-13T08:27:10;2.90;;;1.63;;
13319;SDS011;59599;47.608;12.190;2023-07-13T08:29:39;2.00;;;1.80;;
13319;SDS011;59599;47.608;12.190;2023-07-13T08:32:06;5.07;;;2.30;;
13319;SDS011;59599;47.608;12.190;2023-07-13T08:34:35;3.20;;;1.90;;
13319;SDS011;59599;47.608;12.190;2023-07-13T08:37:02;2.20;;;1.80;;
13319;SDS011;59599;47.608;12.190;2023-07-13T08:39:28;4.07;;;1.60;;
13319;SDS011;59599;47.608;12.190;2023-07-13T08:41:56;1.90;;;1.70;;
13319;SDS011;59599;47.608;12.190;2023-07-13T08:44:30;2.78;;;1.90;;
13319;SDS011;59599;47.608;12.190;2023-07-13T08:46:57;3.05;;;1.77;;
13319;SDS011;59599;47.608;12.190;2023-07-13T08:49:24;3.47;;;2.08;;
13319;SDS011;59599;47.608;12.190;2023-07-13T08:51:58;4.00;;;1.67;;
13319;SDS011;59599;47.608;12.190;2023-07-13T08:54:36;1.95;;;1.65;;
13319;SDS011;59599;47.608;12.190;2023-07-13T08:57:05;2.97;;;1.77;;
13319;SDS011;59599;47.608;12.190;2023-07-13T08:59:37;2.38;;;1.60;;
13319;SDS011;59599;47.608;12.190;2023-07-13T09:04:33;2.25;;;1.67;;
13319;SDS011;59599;47.608;12.190;2023-07-13T09:07:12;2.00;;;1.58;;
13319;SDS011;59599;47.608;12.190;2023-07-13T09:09:59;2.53;;;1.60;;
13319;SDS011;59599;47.608;12.190;2023-07-13T09:15:32;4.70;;;1.52;;
13319;SDS011;59599;47.608;12.190;2023-07-13T09:18:06;2.05;;;1.67;;
13319;SDS011;59599;47.608;12.190;2023-07-13T09:20:35;2.20;;;1.60;;
13319;SDS011;59599;47.608;12.190;2023-07-13T09:23:04;3.97;;;1.77;;
13319;SDS011;59599;47.608;12.190;2023-07-13T09:25:35;1.70;;;1.50;;
13319;SDS011;59599;47.608;12.190;2023-07-13T09:28:15;2.17;;;1.60;;
13319;SDS011;59599;47.608;12.190;2023-07-13T09:33:12;3.10;;;1.73;;
13319;SDS011;59599;47.608;12.190;2023-07-13T09:35:39;2.55;;;1.83;;
13319;SDS011;59599;47.608;12.190;2023-07-13T09:38:13;2.63;;;1.65;;
13319;SDS011;59599;47.608;12.190;2023-07-13T09:43:05;2.72;;;2.00;;
13319;SDS011;59599;47.608;12.190;2023-07-13T09:45:35;3.55;;;2.05;;
13319;SDS011;59599;47.608;12.190;2023-07-13T09:48:05;3.45;;;2.40;;
13319;SDS011;59599;47.608;12.190;2023-07-13T09:50:36;3.78;;;1.90;;
13319;SDS011;59599;47.608;12.190;2023-07-13T09:53:02;3.67;;;1.75;;
13319;SDS011;59599;47.608;12.190;2023-07-13T09:55:32;5.00;;;1.92;;
13319;SDS011;59599;47.608;12.190;2023-07-13T09:58:16;3.58;;;2.08;;
13319;SDS011;59599;47.608;12.190;2023-07-13T10:00:44;3.35;;;1.83;;
13319;SDS011;59599;47.608;12.190;2023-07-13T10:03:20;2.65;;;1.77;;
13319;SDS011;59599;47.608;12.190;2023-07-13T10:05:47;3.42;;;1.60;;
13319;SDS011;59599;47.608;12.190;2023-07-13T10:08:25;3.42;;;2.00;;
13319;SDS011;59599;47.608;12.190;2023-07-13T10:11:08;2.47;;;2.10;;
13319;SDS011;59599;47.608;12.190;2023-07-13T10:13:40;3.25;;;2.10;;
13319;SDS011;59599;47.608;12.190;2023-07-13T10:16:07;2.25;;;1.75;;
13319;SDS011;59599;47.608;12.190;2023-07-13T10:18:44;3.90;;;1.95;;
13319;SDS011;59599;47.608;12.190;2023-07-13T10:21:19;3.33;;;1.98;;
13319;SDS011;59599;47.608;12.190;2023-07-13T10:24:02;5.13;;;1.98;;
13319;SDS011;59599;47.608;12.190;2023-07-13T10:26:34;2.10;;;1.48;;
13319;SDS011;59599;47.608;12.190;2023-07-13T10:29:04;2.67;;;1.80;;
13319;SDS011;59599;47.608;12.190;2023-07-13T10:31:34;2.40;;;1.55;;
13319;SDS011;59599;47.608;12.190;2023-07-13T10:34:03;2.60;;;1.67;;
13319;SDS011;59599;47.608;12.190;2023-07-13T10:36:34;3.20;;;1.70;;
13319;SDS011;59599;47.608;12.190;2023-07-13T10:39:05;4.10;;;2.30;;
13319;SDS011;59599;47.608;12.190;2023-07-13T10:41:33;2.85;;;1.83;;
13319;SDS011;59599;47.608;12.190;2023-07-13T10:44:00;3.20;;;1.98;;
13319;SDS011;59599;47.608;12.190;2023-07-13T10:46:28;3.33;;;1.98;;
13319;SDS011;59599;47.608;12.190;2023-07-13T10:48:57;2.97;;;1.90;;
13319;SDS011;59599;47.608;12.190;2023-07-13T10:51:26;3.58;;;2.00;;
13319;SDS011;59599;47.608;12.190;2023-07-13T10:54:14;5.30;;;1.80;;
13319;SDS011;59599;47.608;12.190;2023-07-13T10:56:41;2.80;;;1.92;;
13319;SDS011;59599;47.608;12.190;2023-07-13T10:59:26;3.03;;;1.75;;
13319;SDS011;59599;47.608;12.190;2023-07-13T11:02:06;4.60;;;1.92;;
13319;SDS011;59599;47.608;12.190;2023-07-13T11:04:42;3.42;;;2.20;;
13319;SDS011;59599;47.608;12.190;2023-07-13T11:07:17;2.90;;;2.05;;
13319;SDS011;59599;47.608;12.190;2023-07-13T11:09:43;4.65;;;2.20;;
13319;SDS011;59599;47.608;12.190;2023-07-13T11:20:09;4.80;;;2.33;;
13319;SDS011;59599;47.608;12.190;2023-07-13T11:27:52;5.53;;;3.03;;
13319;SDS011;59599;47.608;12.190;2023-07-13T11:30:36;5.10;;;2.72;;
13319;SDS011;59599;47.608;12.190;2023-07-13T11:38:45;4.40;;;2.63;;
13319;SDS011;59599;47.608;12.190;2023-07-13T11:41:18;3.35;;;2.70;;
13319;SDS011;59599;47.608;12.190;2023-07-13T11:43:48;5.07;;;2.45;;
13319;SDS011;59599;47.608;12.190;2023-07-13T11:46:20;7.03;;;2.50;;
13319;SDS011;59599;47.608;12.190;2023-07-13T11:48:47;4.13;;;2.67;;
13319;SDS011;59599;47.608;12.190;2023-07-13T11:51:17;7.78;;;3.33;;
13319;SDS011;59599;47.608;12.190;2023-07-13T11:53:45;6.28;;;3.55;;
13319;SDS011;59599;47.608;12.190;2023-07-13T11:56:12;9.77;;;2.70;;
13319;SDS011;59599;47.608;12.190;2023-07-13T11:58:38;10.07;;;3.20;;
13319;SDS011;59599;47.608;12.190;2023-07-13T12:01:04;3.33;;;2.40;;
13319;SDS011;59599;47.608;12.190;2023-07-13T12:03:31;4.90;;;2.60;;
13319;SDS011;59599;47.608;12.190;2023-07-13T12:06:04;4.90;;;3.03;;
13319;SDS011;59599;47.608;12.190;2023-07-13T12:08:31;5.00;;;2.63;;
13319;SDS011;59599;47.608;12.190;2023-07-13T12:10:58;5.60;;;2.45;;
13319;SDS011;59599;47.608;12.190;2023-07-13T12:13:26;3.17;;;2.22;;
13319;SDS011;59599;47.608;12.190;2023-07-13T12:15:54;6.03;;;2.20;;
13319;SDS011;59599;47.608;12.190;2023-07-13T12:18:20;5.25;;;2.08;;
13319;SDS011;59599;47.608;12.190;2023-07-13T12:20:48;3.33;;;2.10;;
13319;SDS011;59599;47.608;12.190;2023-07-13T12:23:20;2.95;;;2.10;;
13319;SDS011;59599;47.608;12.190;2023-07-13T12:25:47;4.07;;;2.55;;
13319;SDS011;59599;47.608;12.190;2023-07-13T12:30:59;3.45;;;2.25;;
13319;SDS011;59599;47.608;12.190;2023-07-13T12:33:27;4.45;;;2.28;;
13319;SDS011;59599;47.608;12.190;2023-07-13T12:35:54;3.55;;;2.03;;
13319;SDS011;59599;47.608;12.190;2023-07-13T12:38:20;3.13;;;2.25;;
13319;SDS011;59599;47.608;12.190;2023-07-13T12:40:48;5.93;;;2.78;;
13319;SDS011;59599;47.608;12.190;2023-07-13T12:43:15;3.22;;;2.00;;
13319;SDS011;59599;47.608;12.190;2023-07-13T12:45:54;3.35;;;2.13;;
13319;SDS011;59599;47.608;12.190;2023-07-13T12:48:26;3.38;;;2.15;;
13319;SDS011;59599;47.608;12.190;2023-07-13T12:50:53;2.83;;;2.00;;
13319;SDS011;59599;47.608;12.190;2023-07-13T12:53:21;3.50;;;2.45;;
13319;SDS011;59599;47.608;12.190;2023-07-13T12:58:36;5.35;;;2.38;;
13319;SDS011;59599;47.608;12.190;2023-07-13T13:01:03;4.60;;;1.85;;
13319;SDS011;59599;47.608;12.190;2023-07-13T13:03:33;5.82;;;2.45;;
13319;SDS011;59599;47.608;12.190;2023-07-13T13:06:02;4.95;;;2.08;;
13319;SDS011;59599;47.608;12.190;2023-07-13T13:08:30;2.65;;;1.80;;
13319;SDS011;59599;47.608;12.190;2023-07-13T13:11:00;3.90;;;1.88;;
13319;SDS011;59599;47.608;12.190;2023-07-13T13:13:26;4.20;;;2.15;;
13319;SDS011;59599;47.608;12.190;2023-07-13T13:15:53;4.47;;;2.05;;
13319;SDS011;59599;47.608;12.190;2023-07-13T13:18:19;1.90;;;1.60;;
13319;SDS011;59599;47.608;12.190;2023-07-13T13:20:47;5.82;;;2.30;;
13319;SDS011;59599;47.608;12.190;2023-07-13T13:23:16;4.22;;;1.90;;
13319;SDS011;59599;47.608;12.190;2023-07-13T13:25:47;4.53;;;1.77;;
13319;SDS011;59599;47.608;12.190;2023-07-13T13:28:14;2.95;;;1.70;;
13319;SDS011;59599;47.608;12.190;2023-07-13T13:30:41;4.35;;;1.50;;
13319;SDS011;59599;47.608;12.190;2023-07-13T13:33:09;3.30;;;1.70;;
13319;SDS011;59599;47.608;12.190;2023-07-13T13:35:37;2.78;;;1.27;;
13319;SDS011;59599;47.608;12.190;2023-07-13T13:38:24;3.45;;;1.50;;
13319;SDS011;59599;47.608;12.190;2023-07-13T13:40:50;1.27;;;1.13;;
13319;SDS011;59599;47.608;12.190;2023-07-13T13:43:23;2.20;;;1.60;;
13319;SDS011;59599;47.608;12.190;2023-07-13T13:45:55;1.85;;;1.38;;
13319;SDS011;59599;47.608;12.190;2023-07-13T13:48:26;3.78;;;1.45;;
13319;SDS011;59599;47.608;12.190;2023-07-13T13:50:55;3.67;;;1.50;;
13319;SDS011;59599;47.608;12.190;2023-07-13T13:53:21;2.65;;;1.40;;
13319;SDS011;59599;47.608;12.190;2023-07-13T13:55:48;2.33;;;1.38;;
13319;SDS011;59599;47.608;12.190;2023-07-13T13:58:14;2.10;;;1.50;;
13319;SDS011;59599;47.608;12.190;2023-07-13T14:00:40;2.55;;;1.30;;
13319;SDS011;59599;47.608;12.190;2023-07-13T14:03:13;2.45;;;1.25;;
13319;SDS011;59599;47.608;12.190;2023-07-13T14:05:40;2.45;;;1.25;;
13319;SDS011;59599;47.608;12.190;2023-07-13T14:08:08;3.60;;;1.60;;
13319;SDS011;59599;47.608;12.190;2023-07-13T14:10:41;3.13;;;1.58;;
13319;SDS011;59599;47.608;12.190;2023-07-13T14:13:07;5.35;;;1.58;;
13319;SDS011;59599;47.608;12.190;2023-07-13T14:15:43;2.50;;;1.33;;
13319;SDS011;59599;47.608;12.190;2023-07-13T14:18:09;8.25;;;1.65;;
13319;SDS011;59599;47.608;12.190;2023-07-13T14:20:35;4.03;;;1.52;;
13319;SDS011;59599;47.608;12.190;2023-07-13T14:23:01;1.70;;;1.30;;
13319;SDS011;59599;47.608;12.190;2023-07-13T14:25:27;3.42;;;1.55;;
13319;SDS011;59599;47.608;12.190;2023-07-13T14:27:55;3.15;;;1.60;;
13319;SDS011;59599;47.608;12.190;2023-07-13T14:30:24;1.70;;;1.20;;
13319;SDS011;59599;47.608;12.190;2023-07-13T14:32:50;4.53;;;1.80;;
13319;SDS011;59599;47.608;12.190;2023-07-13T14:35:17;3.15;;;1.35;;
13319;SDS011;59599;47.608;12.190;2023-07-13T14:37:43;1.95;;;1.52;;
13319;SDS011;59599;47.608;12.190;2023-07-13T14:40:13;2.30;;;1.50;;
13319;SDS011;59599;47.608;12.190;2023-07-13T14:42:39;2.50;;;1.60;;
13319;SDS011;59599;47.608;12.190;2023-07-13T14:45:05;2.70;;;1.48;;
13319;SDS011;59599;47.608;12.190;2023-07-13T14:47:37;3.13;;;1.60;;
13319;SDS011;59599;47.608;12.190;2023-07-13T14:50:03;1.58;;;1.33;;
13319;SDS011;59599;47.608;12.190;2023-07-13T14:52:30;3.10;;;1.73;;
13319;SDS011;59599;47.608;12.190;2023-07-13T14:54:56;3.67;;;1.70;;
13319;SDS011;59599;47.608;12.190;2023-07-13T14:57:22;2.35;;;1.58;;
13319;SDS011;59599;47.608;12.190;2023-07-13T14:59:48;1.67;;;1.30;;
13319;SDS011;59599;47.608;12.190;2023-07-13T15:04:48;1.63;;;1.50;;
13319;SDS011;59599;47.608;12.190;2023-07-13T15:07:14;2.00;;;1.38;;
13319;SDS011;59599;47.608;12.190;2023-07-13T15:09:42;2.53;;;1.40;;
13319;SDS011;59599;47.608;12.190;2023-07-13T15:12:08;1.83;;;1.50;;
13319;SDS011;59599;47.608;12.190;2023-07-13T15:14:34;3.40;;;1.30;;
13319;SDS011;59599;47.608;12.190;2023-07-13T15:17:00;4.03;;;1.90;;
13319;SDS011;59599;47.608;12.190;2023-07-13T15:19:26;3.40;;;1.50;;
13319;SDS011;59599;47.608;12.190;2023-07-13T15:21:53;5.00;;;1.40;;
13319;SDS011;59599;47.608;12.190;2023-07-13T15:24:20;4.72;;;1.48;;
13319;SDS011;59599;47.608;12.190;2023-07-13T15:26:46;2.22;;;1.33;;
13319;SDS011;59599;47.608;12.190;2023-07-13T15:29:14;2.25;;;1.48;;
13319;SDS011;59599;47.608;12.190;2023-07-13T15:31:40;2.00;;;1.50;;
13319;SDS011;59599;47.608;12.190;2023-07-13T15:34:09;3.20;;;1.63;;
13319;SDS011;59599;47.608;12.190;2023-07-13T15:36:36;2.35;;;1.65;;
13319;SDS011;59599;47.608;12.190;2023-07-13T15:39:02;3.17;;;1.63;;
13319;SDS011;59599;47.608;12.190;2023-07-13T15:41:28;2.90;;;1.38;;
13319;SDS011;59599;47.608;12.190;2023-07-13T15:43:56;3.90;;;1.90;;
13319;SDS011;59599;47.608;12.190;2023-07-13T15:46:25;2.30;;;1.80;;
13319;SDS011;59599;47.608;12.190;2023-07-13T15:48:53;2.22;;;1.90;;
13319;SDS011;59599;47.608;12.190;2023-07-13T15:51:28;3.35;;;1.83;;
13319;SDS011;59599;47.608;12.190;2023-07-13T15:53:59;2.45;;;1.95;;
13319;SDS011;59599;47.608;12.190;2023-07-13T15:56:28;2.03;;;1.50;;
13319;SDS011;59599;47.608;12.190;2023-07-13T15:58:55;4.10;;;2.35;;
13319;SDS011;59599;47.608;12.190;2023-07-13T16:01:22;2.00;;;1.80;;
13319;SDS011;59599;47.608;12.190;2023-07-13T16:03:49;6.22;;;2.15;;
13319;SDS011;59599;47.608;12.190;2023-07-13T16:06:23;3.33;;;1.92;;
13319;SDS011;59599;47.608;12.190;2023-07-13T16:08:50;2.58;;;1.80;;
13319;SDS011;59599;47.608;12.190;2023-07-13T16:11:20;2.50;;;1.88;;
13319;SDS011;59599;47.608;12.190;2023-07-13T16:13:50;2.50;;;2.03;;
13319;SDS011;59599;47.608;12.190;2023-07-13T16:16:20;4.72;;;1.63;;
13319;SDS011;59599;47.608;12.190;2023-07-13T16:18:50;2.15;;;1.52;;
13319;SDS011;59599;47.608;12.190;2023-07-13T16:21:19;1.85;;;1.40;;
13319;SDS011;59599;47.608;12.190;2023-07-13T16:23:44;3.58;;;1.30;;
13319;SDS011;59599;47.608;12.190;2023-07-13T16:29:26;3.75;;;1.73;;
13319;SDS011;59599;47.608;12.190;2023-07-13T16:32:03;2.67;;;1.52;;
13319;SDS011;59599;47.608;12.190;2023-07-13T16:34:33;2.92;;;1.33;;
13319;SDS011;59599;47.608;12.190;2023-07-13T16:37:03;4.15;;;1.80;;
13319;SDS011;59599;47.608;12.190;2023-07-13T16:39:29;2.35;;;1.67;;
13319;SDS011;59599;47.608;12.190;2023-07-13T16:41:57;1.92;;;1.40;;
13319;SDS011;59599;47.608;12.190;2023-07-13T16:44:23;4.22;;;1.92;;
13319;SDS011;59599;47.608;12.190;2023-07-13T16:46:51;3.40;;;1.55;;
13319;SDS011;59599;47.608;12.190;2023-07-13T16:49:31;4.18;;;1.40;;
13319;SDS011;59599;47.608;12.190;2023-07-13T16:51:57;2.55;;;1.50;;
13319;SDS011;59599;47.608;12.190;2023-07-13T16:54:27;2.38;;;1.27;;
13319;SDS011;59599;47.608;12.190;2023-07-13T16:56:55;4.50;;;1.70;;
13319;SDS011;59599;47.608;12.190;2023-07-13T16:59:24;1.80;;;1.40;;
13319;SDS011;59599;47.608;12.190;2023-07-13T17:01:50;2.85;;;1.75;;
13319;SDS011;59599;47.608;12.190;2023-07-13T17:04:16;4.18;;;1.77;;
13319;SDS011;59599;47.608;12.190;2023-07-13T17:06:47;2.33;;;1.38;;
13319;SDS011;59599;47.608;12.190;2023-07-13T17:09:14;2.58;;;1.63;;
13319;SDS011;59599;47.608;12.190;2023-07-13T17:11:40;2.67;;;1.40;;
13319;SDS011;59599;47.608;12.190;2023-07-13T17:14:12;2.55;;;1.35;;
13319;SDS011;59599;47.608;12.190;2023-07-13T17:16:47;7.75;;;1.63;;
13319;SDS011;59599;47.608;12.190;2023-07-13T17:19:14;1.83;;;1.50;;
13319;SDS011;59599;47.608;12.190;2023-07-13T17:21:41;2.80;;;1.38;;
13319;SDS011;59599;47.608;12.190;2023-07-13T17:24:15;3.88;;;1.40;;
13319;SDS011;59599;47.608;12.190;2023-07-13T17:26:41;5.82;;;1.65;;
13319;SDS011;59599;47.608;12.190;2023-07-13T17:29:07;5.13;;;1.70;;
13319;SDS011;59599;47.608;12.190;2023-07-13T17:31:34;6.00;;;1.65;;
13319;SDS011;59599;47.608;12.190;2023-07-13T17:34:00;3.67;;;1.50;;
13319;SDS011;59599;47.608;12.190;2023-07-13T17:36:26;3.67;;;1.70;;
13319;SDS011;59599;47.608;12.190;2023-07-13T17:38:53;1.45;;;1.30;;
13319;SDS011;59599;47.608;12.190;2023-07-13T17:41:23;2.80;;;1.40;;
13319;SDS011;59599;47.608;12.190;2023-07-13T17:43:49;1.50;;;1.40;;
13319;SDS011;59599;47.608;12.190;2023-07-13T17:46:16;3.40;;;1.60;;
13319;SDS011;59599;47.608;12.190;2023-07-13T17:48:43;3.58;;;1.40;;
13319;SDS011;59599;47.608;12.190;2023-07-13T17:51:13;2.60;;;1.50;;
13319;SDS011;59599;47.608;12.190;2023-07-13T17:53:40;3.33;;;1.40;;
13319;SDS011;59599;47.608;12.190;2023-07-13T17:56:08;4.20;;;1.38;;
13319;SDS011;59599;47.608;12.190;2023-07-13T17:58:34;2.67;;;1.65;;
13319;SDS011;59599;47.608;12.190;2023-07-13T18:01:00;1.60;;;1.50;;
13319;SDS011;59599;47.608;12.190;2023-07-13T18:03:28;1.83;;;1.60;;
13319;SDS011;59599;47.608;12.190;2023-07-13T18:05:56;2.08;;;1.60;;
13319;SDS011;59599;47.608;12.190;2023-07-13T18:08:24;3.97;;;1.52;;
13319;SDS011;59599;47.608;12.190;2023-07-13T18:10:51;3.55;;;1.90;;
13319;SDS011;59599;47.608;12.190;2023-07-13T18:13:17;3.22;;;1.75;;
13319;SDS011;59599;47.608;12.190;2023-07-13T18:15:43;1.83;;;1.40;;
13319;SDS011;59599;47.608;12.190;2023-07-13T18:18:10;2.47;;;1.90;;
13319;SDS011;59599;47.608;12.190;2023-07-13T18:20:37;5.00;;;1.80;;
13319;SDS011;59599;47.608;12.190;2023-07-13T18:23:08;1.95;;;1.75;;
13319;SDS011;59599;47.608;12.190;2023-07-13T18:25:40;2.42;;;2.00;;
13319;SDS011;59599;47.608;12.190;2023-07-13T18:28:06;4.75;;;1.80;;
13319;SDS011;59599;47.608;12.190;2023-07-13T18:30:32;1.70;;;1.60;;
13319;SDS011;59599;47.608;12.190;2023-07-13T18:32:58;3.10;;;1.83;;
13319;SDS011;59599;47.608;12.190;2023-07-13T18:35:32;2.70;;;2.17;;
13319;SDS011;59599;47.608;12.190;2023-07-13T18:37:58;2.47;;;1.80;;
13319;SDS011;59599;47.608;12.190;2023-07-13T18:40:24;3.00;;;1.90;;
13319;SDS011;59599;47.608;12.190;2023-07-13T18:42:51;2.30;;;1.58;;
13319;SDS011;59599;47.608;12.190;2023-07-13T18:45:17;2.83;;;1.90;;
13319;SDS011;59599;47.608;12.190;2023-07-13T18:47:44;2.90;;;1.80;;
13319;SDS011;59599;47.608;12.190;2023-07-13T18:50:21;2.88;;;2.10;;
13319;SDS011;59599;47.608;12.190;2023-07-13T18:52:49;4.50;;;2.08;;
13319;SDS011;59599;47.608;12.190;2023-07-13T18:55:17;3.80;;;1.90;;
13319;SDS011;59599;47.608;12.190;2023-07-13T18:57:44;2.83;;;1.90;;
13319;SDS011;59599;47.608;12.190;2023-07-13T19:00:12;2.30;;;2.10;;
13319;SDS011;59599;47.608;12.190;2023-07-13T19:02:38;3.10;;;1.98;;
13319;SDS011;59599;47.608;12.190;2023-07-13T19:05:18;5.18;;;2.20;;
13319;SDS011;59599;47.608;12.190;2023-07-13T19:07:48;4.35;;;2.28;;
13319;SDS011;59599;47.608;12.190;2023-07-13T19:10:15;2.33;;;1.92;;
13319;SDS011;59599;47.608;12.190;2023-07-13T19:12:45;3.38;;;2.22;;
13319;SDS011;59599;47.608;12.190;2023-07-13T19:17:44;5.50;;;2.47;;
13319;SDS011;59599;47.608;12.190;2023-07-13T19:20:13;6.22;;;2.65;;
13319;SDS011;59599;47.608;12.190;2023-07-13T19:22:41;5.35;;;2.20;;